createdAt,value
2023-04-01T00:00:44.250Z,98721.42
2023-04-01T00:03:10.346Z,98723.09
2023-04-01T00:05:35.841Z,98716.16
2023-04-01T00:08:01.257Z,98715.05
2023-04-01T00:09:10.724Z,98721.88
2023-04-01T00:11:35.369Z,98714.25
2023-04-01T00:14:00.908Z,98717.53
2023-04-01T00:16:29.234Z,98717.81
2023-04-01T00:18:56.410Z,98720.00
2023-04-01T00:21:23.628Z,98713.98
2023-04-01T00:23:48.904Z,98715.51
2023-04-01T00:26:18.494Z,98723.41
2023-04-01T00:28:44.444Z,98720.63
2023-04-01T00:31:11.171Z,98722.16
2023-04-01T00:33:38.727Z,98710.66
2023-04-01T00:36:15.350Z,98719.44
2023-04-01T00:38:43.145Z,98717.91
2023-04-01T01:42:00.201Z,98727.07
2023-04-01T01:44:32.400Z,98729.34
2023-04-01T01:47:03.789Z,98725.68
2023-04-01T01:48:13.494Z,98723.13
2023-04-01T01:50:42.823Z,98737.23
2023-04-01T01:51:53.730Z,98743.84
2023-04-01T01:54:21.993Z,98745.85
2023-04-01T01:55:35.286Z,98745.55
2023-04-01T01:58:17.334Z,98740.22
2023-04-01T01:59:29.850Z,98750.80
2023-04-01T02:01:58.011Z,98741.64
2023-04-01T02:04:24.256Z,98733.59
2023-04-01T02:06:53.311Z,98737.41
2023-04-01T02:09:22.415Z,98739.11
2023-04-01T02:13:30.281Z,98737.69
2023-04-01T02:16:17.240Z,98741.65
2023-04-01T02:17:33.708Z,98744.34
2023-04-01T02:18:46.459Z,98736.28
2023-04-01T02:21:19.217Z,98741.80
2023-04-01T02:23:48.456Z,98746.58
2023-04-01T02:26:22.320Z,98741.63
2023-04-01T02:28:50.707Z,98740.06
2023-04-01T02:30:02.167Z,98751.06
2023-04-01T02:31:13.479Z,98752.20
2023-04-01T02:32:22.852Z,98748.65
2023-04-01T02:34:48.952Z,98741.78
2023-04-01T02:37:18.224Z,98740.92
2023-04-01T02:38:28.446Z,98749.55
2023-04-01T02:40:59.923Z,98733.02
2023-04-01T02:42:11.256Z,98738.67
2023-04-01T02:44:39.426Z,98742.09
2023-04-01T02:47:04.540Z,98738.67
2023-04-01T02:49:32.807Z,98727.50
2023-04-01T02:51:58.057Z,98741.19
2023-04-01T02:54:23.285Z,98738.50
2023-04-01T02:55:33.199Z,98737.97
2023-04-01T02:57:59.180Z,98737.10
2023-04-01T02:59:10.155Z,98747.59
2023-04-01T03:01:37.144Z,98730.06
2023-04-01T03:02:47.009Z,98737.98
2023-04-01T03:05:12.227Z,98735.16
2023-04-01T03:07:39.371Z,98735.30
2023-04-01T03:10:05.780Z,98730.59
2023-04-01T03:12:31.963Z,98731.44
2023-04-01T03:14:56.740Z,98729.48
2023-04-01T03:17:23.702Z,98730.05
2023-04-01T03:19:49.794Z,98726.38
2023-04-01T03:22:30.048Z,98729.20
2023-04-01T03:24:54.939Z,98729.06
2023-04-01T03:27:20.997Z,98734.41
2023-04-01T03:29:45.463Z,98740.57
2023-04-01T03:32:12.324Z,98745.22
2023-04-01T03:34:37.184Z,98747.20
2023-04-01T03:37:02.093Z,98745.96
2023-04-01T03:38:11.727Z,98742.87
2023-04-01T03:40:37.399Z,98746.15
2023-04-01T03:43:03.184Z,98743.07
2023-04-01T03:45:31.119Z,98743.36
2023-04-01T03:46:41.685Z,98741.51
2023-04-01T03:47:51.448Z,98751.27
2023-04-01T03:49:01.306Z,98755.52
2023-04-01T03:50:11.383Z,98759.05
2023-04-01T03:52:35.872Z,98748.16
2023-04-01T03:54:59.660Z,98756.06
2023-04-01T03:56:10.280Z,98762.00
2023-04-01T03:57:20.066Z,98765.52
2023-04-01T03:59:44.865Z,98761.88
2023-04-01T04:02:10.143Z,98763.44
2023-04-01T04:04:37.408Z,98763.14
2023-04-01T04:07:05.572Z,98760.30
2023-04-01T04:09:33.838Z,98762.44
2023-04-01T04:10:44.446Z,98764.56
2023-04-01T04:11:53.016Z,98774.87
2023-04-01T04:14:17.478Z,98769.10
2023-04-01T04:16:44.245Z,98776.43
2023-04-01T04:19:31.629Z,98772.13
2023-04-01T04:22:08.933Z,98772.61
2023-04-01T04:24:36.732Z,98779.23
2023-04-01T04:27:18.649Z,98778.59
2023-04-01T04:29:45.614Z,98780.88
2023-04-01T04:32:11.408Z,98784.88
2023-04-01T04:33:21.192Z,98792.20
2023-04-01T04:34:32.114Z,98794.91
2023-04-01T04:35:41.269Z,98796.48
2023-04-01T04:38:06.629Z,98785.47
2023-04-01T04:40:32.756Z,98790.70
2023-04-01T04:42:58.711Z,98790.86
2023-04-01T04:44:08.118Z,98792.41
2023-04-01T04:46:32.269Z,98787.19
2023-04-01T04:48:59.565Z,98781.26
2023-04-01T04:51:29.381Z,98781.66
2023-04-01T04:52:38.508Z,98781.67
2023-04-01T04:55:03.984Z,98772.34
2023-04-01T04:57:28.243Z,98780.81
2023-04-01T04:59:55.810Z,98781.91
2023-04-01T05:02:42.213Z,98786.73
2023-04-01T05:05:08.254Z,98787.33
2023-04-01T05:07:36.332Z,98776.30
2023-04-01T05:08:46.663Z,98773.59
2023-04-01T05:09:55.877Z,98778.27
2023-04-01T05:12:22.677Z,98778.69
2023-04-01T05:14:58.290Z,98775.74
2023-04-01T05:17:52.659Z,98772.76
2023-04-01T05:20:17.742Z,98784.64
2023-04-01T05:21:27.197Z,98780.25
2023-04-01T05:23:52.943Z,98776.00
2023-04-01T05:26:17.780Z,98784.93
2023-04-01T05:28:43.386Z,98776.43
2023-04-01T05:29:55.065Z,98783.59
2023-04-01T05:33:12.038Z,98781.93
2023-04-01T05:35:37.263Z,98784.06
2023-04-01T05:38:02.328Z,98776.30
2023-04-01T05:40:29.759Z,98773.75
2023-04-01T05:42:58.291Z,98778.00
2023-04-01T05:45:23.058Z,98779.56
2023-04-01T05:47:50.001Z,98783.52
2023-04-01T05:50:20.409Z,98775.01
2023-04-01T05:51:30.321Z,98782.77
2023-04-01T05:53:57.102Z,98778.29
2023-04-01T05:56:22.485Z,98779.70
2023-04-01T05:58:52.429Z,98782.81
2023-04-01T06:01:16.743Z,98777.41
2023-04-01T06:03:43.450Z,98775.45
2023-04-01T06:06:29.573Z,98781.26
2023-04-01T06:10:22.256Z,98796.66
2023-04-01T06:12:01.614Z,98793.77
2023-04-01T06:15:19.042Z,98800.60
2023-04-01T06:18:25.314Z,98790.45
2023-04-01T06:24:16.109Z,98812.79
2023-04-01T06:28:43.991Z,98804.42
2023-04-01T06:31:40.888Z,98804.45
2023-04-01T06:33:09.213Z,98812.39
2023-04-01T06:35:57.691Z,98809.66
2023-04-01T06:39:03.126Z,98803.02
2023-04-01T06:42:00.405Z,98809.68
2023-04-01T06:44:42.904Z,98817.05
2023-04-01T06:47:56.495Z,98812.23
2023-04-01T06:51:25.377Z,98819.87
2023-04-01T06:52:53.923Z,98816.05
2023-04-01T06:55:58.826Z,98811.94
2023-04-01T06:58:54.106Z,98799.20
2023-04-01T07:01:35.135Z,98803.31
2023-04-01T07:04:21.099Z,98815.05
2023-04-01T07:06:55.032Z,98818.59
2023-04-01T07:09:32.087Z,98816.74
2023-04-01T07:11:31.287Z,98820.56
2023-04-01T07:14:46.277Z,98813.38
2023-04-01T07:17:25.114Z,98815.05
2023-04-01T07:20:06.632Z,98809.95
2023-04-01T07:22:52.312Z,98825.23
2023-04-01T07:25:48.967Z,98826.66
2023-04-01T07:29:05.496Z,98826.95
2023-04-01T07:33:46.476Z,98823.41
2023-04-01T07:36:40.763Z,98823.09
2023-04-01T07:39:28.152Z,98828.86
2023-04-01T07:42:37.069Z,98831.58
2023-04-01T07:45:21.293Z,98830.33
2023-04-01T07:48:31.780Z,98832.03
2023-04-01T07:51:30.413Z,98826.66
2023-04-01T07:55:57.306Z,98836.14
2023-04-01T08:02:01.132Z,98826.09
2023-04-01T08:03:39.186Z,98826.66
2023-04-01T08:06:36.095Z,98831.91
2023-04-01T08:09:22.635Z,98818.44
2023-04-01T08:12:36.848Z,98826.34
2023-04-01T08:17:27.115Z,98822.54
2023-04-01T08:18:55.360Z,98823.84
2023-04-01T08:21:45.544Z,98821.58
2023-04-01T08:26:05.494Z,98838.86
2023-04-01T08:30:40.796Z,98834.61
2023-04-01T08:33:31.676Z,98841.25
2023-04-01T08:36:11.340Z,98851.30
2023-04-01T08:37:26.160Z,98853.84
2023-04-01T08:38:59.590Z,98855.23
2023-04-01T08:41:57.236Z,98856.25
2023-04-01T08:45:24.459Z,98860.27
2023-04-01T08:50:18.611Z,98864.75
2023-04-01T08:53:18.874Z,98856.52
2023-04-01T08:56:27.699Z,98862.36
2023-04-01T08:57:58.886Z,98867.35
2023-04-01T09:01:40.804Z,98862.27
2023-04-01T09:04:29.921Z,98861.28
2023-04-01T09:07:30.671Z,98862.31
2023-04-01T09:10:14.170Z,98867.25
2023-04-01T09:13:18.933Z,98849.83
2023-04-01T09:16:06.757Z,98856.77
2023-04-01T09:19:11.102Z,98859.16
2023-04-01T09:22:01.575Z,98849.38
2023-04-01T09:26:17.586Z,98855.77
2023-04-01T09:29:40.648Z,98855.87
2023-04-01T09:32:27.547Z,98861.79
2023-04-01T09:35:26.863Z,98864.45
2023-04-01T09:38:16.479Z,98868.55
2023-04-01T09:41:33.844Z,98851.92
2023-04-01T09:44:28.362Z,98858.78
2023-04-01T09:48:14.239Z,98862.34
2023-04-01T09:52:28.653Z,98854.78
2023-04-01T09:55:53.520Z,98853.74
2023-04-01T09:58:46.570Z,98857.41
2023-04-01T10:02:01.214Z,98850.16
2023-04-01T10:05:24.029Z,98845.20
2023-04-01T10:08:35.583Z,98849.28
2023-04-01T10:12:03.537Z,98843.42
2023-04-01T10:13:51.857Z,98850.98
2023-04-01T10:20:08.730Z,98832.72
2023-04-01T10:23:18.015Z,98843.03
2023-04-01T10:26:10.322Z,98836.64
2023-04-01T10:29:32.282Z,98829.23
2023-04-01T10:32:16.666Z,98840.81
2023-04-01T10:35:39.016Z,98825.04
2023-04-01T10:38:22.598Z,98828.02
2023-04-01T10:41:20.604Z,98825.04
2023-04-01T10:45:05.222Z,98819.47
2023-04-01T10:46:41.196Z,98821.94
2023-04-01T10:49:38.959Z,98824.30
2023-04-01T10:52:44.642Z,98827.98
2023-04-01T10:55:50.054Z,98820.44
2023-04-01T10:58:46.939Z,98815.04
2023-04-01T11:02:29.146Z,98816.48
2023-04-01T11:05:54.183Z,98808.38
2023-04-01T11:09:06.668Z,98805.20
2023-04-01T11:10:29.921Z,98803.77
2023-04-01T11:13:38.715Z,98799.13
2023-04-01T11:16:20.860Z,98796.43
2023-04-01T11:19:34.444Z,98793.62
2023-04-01T11:22:42.999Z,98796.37
2023-04-01T11:24:05.387Z,98791.92
2023-04-01T11:27:25.329Z,98791.97
2023-04-01T11:30:39.247Z,98781.22
2023-04-01T11:33:28.793Z,98784.41
2023-04-01T11:35:04.085Z,98793.45
2023-04-01T11:36:34.391Z,98783.49
2023-04-01T11:41:28.232Z,98786.28
2023-04-01T11:44:31.077Z,98790.39
2023-04-01T11:46:10.414Z,98787.11
2023-04-01T11:47:39.707Z,98788.94
2023-04-01T11:50:45.669Z,98778.02
2023-04-01T11:53:41.952Z,98774.11
2023-04-01T11:55:25.216Z,98782.50
2023-04-01T11:58:47.672Z,98757.66
2023-04-01T12:01:44.375Z,98760.39
2023-04-01T12:05:08.360Z,98755.89
2023-04-01T12:08:04.042Z,98755.22
2023-04-01T12:09:35.377Z,98748.79
2023-04-01T12:12:16.794Z,98757.62
2023-04-01T12:15:38.097Z,98752.58
2023-04-01T12:18:39.668Z,98745.83
2023-04-01T12:24:53.313Z,98747.69
2023-04-01T12:26:09.507Z,98742.43
2023-04-01T12:29:25.284Z,98741.45
2023-04-01T12:32:16.951Z,98734.02
2023-04-01T12:35:19.276Z,98747.02
2023-04-01T12:38:21.527Z,98753.09
2023-04-01T12:41:23.321Z,98737.23
2023-04-01T12:44:35.691Z,98739.77
2023-04-01T12:47:34.652Z,98730.14
2023-04-01T12:50:48.559Z,98727.61
2023-04-01T12:54:07.353Z,98736.41
2023-04-01T12:56:51.762Z,98734.03
2023-04-01T13:00:16.302Z,98724.09
2023-04-01T13:01:49.382Z,98735.36
2023-04-01T13:05:00.117Z,98728.48
2023-04-01T13:06:21.049Z,98732.17
2023-04-01T13:09:26.796Z,98724.43
2023-04-01T13:12:12.724Z,98730.16
2023-04-01T13:15:12.740Z,98724.75
2023-04-01T13:18:11.225Z,98731.69
2023-04-01T13:21:06.601Z,98722.56
2023-04-01T13:24:02.484Z,98717.33
2023-04-01T13:27:01.674Z,98715.29
2023-04-01T13:31:11.102Z,98719.52
2023-04-01T13:34:18.244Z,98714.63
2023-04-01T13:37:27.348Z,98716.64
2023-04-01T13:40:30.186Z,98708.03
2023-04-01T13:43:23.799Z,98721.20
2023-04-01T13:46:05.364Z,98718.50
2023-04-01T13:49:00.866Z,98715.97
2023-04-01T13:51:59.866Z,98720.67
2023-04-01T13:55:24.158Z,98724.08
2023-04-01T13:58:38.598Z,98715.61
2023-04-01T14:01:41.532Z,98710.72
2023-04-01T14:03:15.223Z,98716.27
2023-04-01T14:05:56.420Z,98712.72
2023-04-01T14:07:13.215Z,98723.02
2023-04-01T14:10:11.172Z,98709.02
2023-04-01T14:11:48.464Z,98722.84
2023-04-01T14:16:33.125Z,98707.83
2023-04-01T14:19:39.385Z,98704.43
2023-04-01T14:24:06.512Z,98704.59
2023-04-01T14:25:50.605Z,98715.73
2023-04-01T14:28:40.217Z,98700.88
2023-04-01T14:31:26.548Z,98705.45
2023-04-01T14:34:40.914Z,98711.19
2023-04-01T14:35:57.059Z,98702.53
2023-04-01T14:38:57.398Z,98713.19
2023-04-01T14:41:57.253Z,98711.16
2023-04-01T14:45:20.913Z,98709.63
2023-04-01T14:48:16.617Z,98709.10
2023-04-01T14:50:57.421Z,98703.70
2023-04-01T14:53:39.332Z,98720.91
2023-04-01T14:54:52.121Z,98721.37
2023-04-01T14:56:05.676Z,98708.88
2023-04-01T14:58:52.755Z,98717.88
2023-04-01T15:00:05.050Z,98722.55
2023-04-01T15:02:57.295Z,98722.58
2023-04-01T15:05:51.430Z,98734.05
2023-04-01T15:08:33.692Z,98728.28
2023-04-01T15:11:35.547Z,98730.08
2023-04-01T15:14:32.570Z,98746.70
2023-04-01T15:17:59.256Z,98741.41
2023-04-01T15:21:22.657Z,98743.88
2023-04-01T15:24:08.407Z,98747.84
2023-04-01T15:27:18.997Z,98755.82
2023-04-01T15:30:04.247Z,98757.39
2023-04-01T15:31:17.785Z,98767.03
2023-04-01T15:34:21.132Z,98761.25
2023-04-01T15:37:19.104Z,98763.75
2023-04-01T15:40:03.455Z,98770.37
2023-04-01T15:43:00.306Z,98771.58
2023-04-01T15:44:46.769Z,98768.95
2023-04-01T15:49:38.202Z,98781.27
2023-04-01T15:52:41.716Z,98780.87
2023-04-01T15:55:45.479Z,98781.52
2023-04-01T15:57:18.036Z,98789.76
2023-04-01T15:58:50.999Z,98787.84
2023-04-01T16:01:49.681Z,98791.42
2023-04-01T16:05:01.302Z,98789.27
2023-04-01T16:06:37.781Z,98795.14
2023-04-01T16:09:14.661Z,98788.03
2023-04-01T16:12:17.966Z,98797.36
2023-04-01T16:15:28.336Z,98798.59
2023-04-01T16:18:37.174Z,98808.23
2023-04-01T16:21:49.757Z,98805.45
2023-04-01T16:24:27.984Z,98811.59
2023-04-01T16:25:49.024Z,98804.87
2023-04-01T16:27:06.905Z,98817.78
2023-04-01T16:30:03.013Z,98809.23
2023-04-01T16:32:54.153Z,98817.94
2023-04-01T16:35:50.048Z,98814.84
2023-04-01T16:38:42.384Z,98825.36
2023-04-01T16:41:34.991Z,98833.34
2023-04-01T16:45:45.351Z,98835.09
2023-04-01T16:48:45.698Z,98838.51
2023-04-01T16:51:44.923Z,98845.90
2023-04-01T16:56:06.790Z,98850.15
2023-04-01T16:57:26.884Z,98851.59
2023-04-01T17:00:22.708Z,98847.06
2023-04-01T17:03:11.508Z,98844.11
2023-04-01T17:05:58.007Z,98854.95
2023-04-01T17:09:02.927Z,98847.11
2023-04-01T17:13:25.221Z,98849.59
2023-04-01T17:16:16.320Z,98846.58
2023-04-01T17:18:54.511Z,98855.45
2023-04-01T17:21:42.506Z,98862.02
2023-04-01T17:24:50.553Z,98869.27
2023-04-01T17:27:45.874Z,98869.33
2023-04-01T17:30:32.295Z,98869.23
2023-04-01T17:33:38.978Z,98868.18
2023-04-01T17:35:09.400Z,98877.99
2023-04-01T17:38:00.448Z,98879.92
2023-04-01T17:41:05.171Z,98877.33
2023-04-01T17:45:43.748Z,98881.41
2023-04-01T17:48:39.747Z,98882.72
2023-04-01T17:50:02.031Z,98885.16
2023-04-01T17:51:18.308Z,98886.87
2023-04-01T17:54:02.128Z,98884.27
2023-04-01T17:57:04.094Z,98893.19
2023-04-01T17:59:40.773Z,98894.03
2023-04-01T18:02:46.575Z,98887.64
2023-04-01T18:05:54.330Z,98895.89
2023-04-01T18:09:05.218Z,98893.66
2023-04-01T18:11:53.772Z,98892.78
2023-04-01T18:13:12.407Z,98894.70
2023-04-01T18:16:08.868Z,98895.64
2023-04-01T18:19:14.933Z,98900.19
2023-04-01T18:21:56.475Z,98893.09
2023-04-01T18:24:47.000Z,98897.03
2023-04-01T18:29:16.027Z,98897.74
2023-04-01T18:33:27.337Z,98888.02
2023-04-01T18:36:07.592Z,98887.17
2023-04-01T18:38:56.863Z,98884.47
2023-04-01T18:41:42.248Z,98881.09
2023-04-01T18:44:25.772Z,98882.49
2023-04-01T18:47:06.771Z,98881.78
2023-04-01T18:50:16.865Z,98886.02
2023-04-01T18:51:30.255Z,98888.92
2023-04-01T18:54:14.087Z,98886.64
2023-04-01T18:56:46.415Z,98893.17
2023-04-01T18:59:54.968Z,98893.17
2023-04-01T19:01:29.077Z,98895.20
2023-04-01T19:04:18.465Z,98889.69
2023-04-01T19:06:57.387Z,98893.22
2023-04-01T19:11:25.657Z,98896.59
2023-04-01T19:14:17.863Z,98885.98
2023-04-01T19:17:16.069Z,98893.95
2023-04-01T19:20:16.276Z,98890.27
2023-04-01T19:21:47.429Z,98896.41
2023-04-01T19:23:18.574Z,98895.24
2023-04-01T19:27:47.429Z,98887.36
2023-04-01T19:32:52.030Z,98893.84
2023-04-01T19:36:05.074Z,98903.09
2023-04-01T19:39:01.261Z,98895.89
2023-04-01T19:42:01.205Z,98894.45
2023-04-01T19:45:23.690Z,98894.14
2023-04-01T19:48:39.748Z,98894.00
2023-04-01T19:51:27.444Z,98900.36
2023-04-01T19:52:43.639Z,98895.30
2023-04-01T19:55:40.105Z,98900.81
2023-04-01T19:59:53.607Z,98894.73
2023-04-01T20:02:42.804Z,98891.90
2023-04-01T20:05:26.603Z,98900.95
2023-04-01T20:08:25.096Z,98912.86
2023-04-01T20:12:41.568Z,98899.55
2023-04-01T20:15:40.872Z,98901.25
2023-04-01T20:20:03.761Z,98904.78
2023-04-01T20:22:56.424Z,98903.80
2023-04-01T20:25:56.297Z,98902.23
2023-04-01T20:30:22.769Z,98913.30
2023-04-01T20:33:03.906Z,98897.45
2023-04-01T20:35:45.210Z,98909.88
2023-04-01T20:38:38.690Z,98909.19
2023-04-01T20:41:43.660Z,98903.82
2023-04-01T20:44:49.549Z,98907.20
2023-04-01T20:47:56.165Z,98912.03
2023-04-01T20:50:46.957Z,98914.72
2023-04-01T20:53:37.689Z,98917.67
2023-04-01T20:56:22.216Z,98913.02
2023-04-01T20:58:58.918Z,98911.45
2023-04-01T21:02:17.226Z,98908.91
2023-04-01T21:05:26.580Z,98898.98
2023-04-01T21:08:33.875Z,98899.85
2023-04-01T21:11:43.974Z,98901.82
2023-04-01T21:13:18.486Z,98910.48
2023-04-01T21:16:10.792Z,98910.48
2023-04-01T21:18:58.304Z,98902.26
2023-04-01T21:20:39.283Z,98921.50
2023-04-01T21:22:02.031Z,98907.65
2023-04-01T21:24:56.836Z,98911.31
2023-04-01T21:27:45.435Z,98912.88
2023-04-01T21:29:31.656Z,98917.68
2023-04-01T21:32:35.880Z,98916.84
2023-04-01T21:39:51.190Z,98914.30
2023-04-01T21:42:31.418Z,98918.55
2023-04-01T21:46:00.436Z,98919.39
2023-04-01T21:49:09.241Z,98913.17
2023-04-01T21:50:34.436Z,98923.75
2023-04-01T21:53:55.741Z,98909.06
2023-04-01T21:56:56.068Z,98909.61
2023-04-01T22:00:06.747Z,98914.84
2023-04-01T22:03:04.191Z,98911.47
2023-04-01T22:04:36.343Z,98912.84
2023-04-01T22:05:52.410Z,98915.68
2023-04-01T22:08:44.033Z,98907.79
2023-04-01T22:11:50.373Z,98903.97
2023-04-01T22:14:45.152Z,98903.97
2023-04-01T22:17:49.766Z,98899.28
2023-04-01T22:19:24.382Z,98910.88
2023-04-01T22:22:18.463Z,98900.12
2023-04-01T22:25:02.938Z,98907.50
2023-04-01T22:29:08.089Z,98901.55
2023-04-01T22:31:46.903Z,98906.09
2023-04-01T22:33:06.093Z,98910.73
2023-04-01T22:36:07.367Z,98912.73
2023-04-01T22:39:08.010Z,98905.36
2023-04-01T22:42:05.810Z,98898.31
2023-04-01T22:43:23.852Z,98913.69
2023-04-01T22:44:50.249Z,98904.92
2023-04-01T22:46:08.743Z,98916.52
2023-04-01T22:50:23.445Z,98906.38
2023-04-01T22:53:25.820Z,98903.91
2023-04-01T22:56:00.643Z,98910.30
2023-04-01T22:58:39.821Z,98907.47
2023-04-01T22:59:55.422Z,98913.23
2023-04-01T23:02:34.262Z,98900.67
2023-04-01T23:05:04.732Z,98903.21
2023-04-01T23:07:54.459Z,98901.50
2023-04-01T23:10:33.707Z,98894.16
2023-04-01T23:13:25.645Z,98900.38
2023-04-01T23:15:55.385Z,98900.38
2023-04-01T23:18:30.591Z,98900.23
2023-04-01T23:20:15.625Z,98907.85
2023-04-01T23:21:43.930Z,98903.73
2023-04-01T23:24:57.553Z,98902.62
2023-04-01T23:26:24.676Z,98902.60
2023-04-01T23:29:00.182Z,98891.03
2023-04-01T23:30:42.789Z,98907.98
2023-04-01T23:33:23.509Z,98893.56
2023-04-01T23:36:11.201Z,98897.09
2023-04-01T23:37:22.300Z,98902.73
2023-04-01T23:39:54.067Z,98900.89
2023-04-01T23:41:04.199Z,98900.46
2023-04-01T23:42:31.608Z,98905.11
2023-04-01T23:43:43.978Z,98905.98
2023-04-01T23:46:14.195Z,98910.95
2023-04-01T23:48:46.211Z,98901.32
2023-04-01T23:51:20.916Z,98893.27
2023-04-01T23:54:01.054Z,98899.61
2023-04-01T23:56:37.930Z,98898.92
2023-04-01T23:59:34.327Z,98897.94
